createdAt,value
2022-12-01T00:00:26.805Z,4.25
2022-12-01T00:02:54.820Z,3.85
2022-12-01T00:05:22.720Z,4.30
2022-12-01T00:07:50.578Z,3.75
2022-12-01T00:10:26.204Z,3.97
2022-12-01T00:12:55.778Z,4.38
2022-12-01T00:15:23.997Z,4.25
2022-12-01T00:17:51.851Z,3.92
2022-12-01T00:20:19.840Z,3.75
2022-12-01T00:22:48.207Z,4.15
2022-12-01T00:25:17.123Z,4.10
2022-12-01T00:27:45.056Z,4.00
2022-12-01T00:30:14.952Z,3.97
2022-12-01T00:32:42.790Z,4.10
2022-12-01T00:35:10.766Z,3.95
2022-12-01T00:37:38.672Z,3.70
2022-12-01T00:40:07.670Z,3.70
2022-12-01T00:42:35.561Z,4.28
2022-12-01T00:45:04.691Z,4.00
2022-12-01T00:47:33.895Z,4.13
2022-12-01T00:50:01.749Z,3.78
2022-12-01T00:52:29.570Z,3.97
2022-12-01T00:54:57.467Z,3.80
2022-12-01T00:57:25.323Z,3.63
2022-12-01T00:59:53.142Z,3.47
2022-12-01T01:02:21.061Z,3.50
2022-12-01T01:04:50.318Z,3.50
2022-12-01T01:07:18.133Z,3.67
2022-12-01T01:09:46.249Z,3.67
2022-12-01T01:12:14.206Z,3.88
2022-12-01T01:14:42.052Z,3.60
2022-12-01T01:17:09.978Z,3.63
2022-12-01T01:19:37.860Z,4.00
2022-12-01T01:22:07.030Z,3.60
2022-12-01T01:24:34.853Z,4.00
2022-12-01T01:27:02.668Z,3.60
2022-12-01T01:29:30.482Z,3.70
2022-12-01T01:31:58.300Z,3.80
2022-12-01T01:34:26.112Z,3.80
2022-12-01T01:36:53.972Z,3.67
2022-12-01T01:39:23.137Z,3.60
2022-12-01T01:41:50.945Z,3.40
2022-12-01T01:44:41.280Z,3.35
2022-12-01T01:47:09.101Z,3.63
2022-12-01T01:49:36.957Z,3.83
2022-12-01T01:52:05.309Z,3.85
2022-12-01T01:54:36.163Z,3.60
2022-12-01T01:57:04.114Z,4.00
2022-12-01T01:59:34.072Z,3.58
2022-12-01T02:02:06.113Z,3.22
2022-12-01T02:04:34.148Z,3.53
2022-12-01T02:07:02.049Z,3.47
2022-12-01T02:09:30.247Z,3.17
2022-12-01T02:12:04.608Z,3.70
2022-12-01T02:14:42.571Z,3.40
2022-12-01T02:17:15.802Z,3.20
2022-12-01T02:19:53.063Z,3.53
2022-12-01T02:22:27.221Z,3.50
2022-12-01T02:25:21.069Z,3.20
2022-12-01T02:28:37.041Z,3.50
2022-12-01T02:31:07.357Z,3.38
2022-12-01T02:33:36.818Z,3.40
2022-12-01T02:36:05.964Z,3.40
2022-12-01T02:38:36.561Z,3.30
2022-12-01T02:41:08.648Z,3.42
2022-12-01T02:43:39.842Z,3.08
2022-12-01T02:46:11.132Z,3.20
2022-12-01T02:48:40.290Z,3.40
2022-12-01T02:51:10.606Z,3.20
2022-12-01T02:53:38.502Z,3.17
2022-12-01T02:56:07.738Z,3.40
2022-12-01T02:58:35.577Z,3.40
2022-12-01T03:01:12.869Z,3.40
2022-12-01T03:03:52.560Z,3.35
2022-12-01T03:06:23.361Z,3.15
2022-12-01T03:08:53.459Z,3.40
2022-12-01T03:11:28.082Z,3.22
2022-12-01T03:14:02.469Z,3.22
2022-12-01T03:16:34.624Z,3.42
2022-12-01T03:19:05.697Z,3.33
2022-12-01T03:21:34.504Z,3.40
2022-12-01T03:24:03.634Z,3.38
2022-12-01T03:26:32.202Z,2.97
2022-12-01T03:29:01.343Z,3.17
2022-12-01T03:31:31.960Z,3.50
2022-12-01T03:34:01.834Z,3.20
2022-12-01T03:36:31.082Z,3.60
2022-12-01T03:39:01.176Z,3.33
2022-12-01T03:41:31.740Z,3.15
2022-12-01T03:44:04.714Z,3.22
2022-12-01T03:46:41.172Z,3.38
2022-12-01T03:49:09.774Z,3.30
2022-12-01T03:51:41.237Z,3.28
2022-12-01T03:54:10.415Z,3.03
2022-12-01T03:56:38.963Z,3.15
2022-12-01T03:59:07.099Z,3.40
2022-12-01T04:01:36.379Z,3.28
2022-12-01T04:04:08.186Z,3.20
2022-12-01T04:06:36.191Z,3.10
2022-12-01T04:09:04.500Z,3.08
2022-12-01T04:11:50.175Z,3.58
2022-12-01T04:14:18.066Z,3.40
2022-12-01T04:16:47.242Z,3.13
2022-12-01T04:19:15.187Z,3.10
2022-12-01T04:21:43.053Z,3.10
2022-12-01T04:24:12.160Z,3.60
2022-12-01T04:26:39.987Z,3.05
2022-12-01T04:29:08.995Z,3.33
2022-12-01T04:31:36.951Z,3.13
2022-12-01T04:34:06.244Z,3.35
2022-12-01T04:36:34.897Z,3.38
2022-12-01T04:39:02.814Z,3.40
2022-12-01T04:41:30.736Z,3.25
2022-12-01T04:43:58.679Z,3.25
2022-12-01T04:46:26.570Z,3.10
2022-12-01T04:48:54.534Z,3.40
2022-12-01T04:51:23.796Z,3.47
2022-12-01T04:53:51.782Z,3.40
2022-12-01T04:56:19.614Z,3.35
2022-12-01T04:58:47.488Z,3.30
2022-12-01T05:01:16.405Z,3.38
2022-12-01T05:03:45.766Z,3.50
2022-12-01T05:06:14.621Z,3.40
2022-12-01T05:08:43.873Z,3.13
2022-12-01T05:11:12.230Z,3.80
2022-12-01T05:13:40.641Z,3.72
2022-12-01T05:16:09.477Z,3.30
2022-12-01T05:18:37.594Z,3.30
2022-12-01T05:21:04.953Z,3.60
2022-12-01T05:23:35.032Z,3.40
2022-12-01T05:26:04.765Z,3.53
2022-12-01T05:28:32.643Z,3.22
2022-12-01T05:31:00.539Z,3.58
2022-12-01T05:33:29.205Z,3.70
2022-12-01T05:35:57.195Z,3.45
2022-12-01T05:38:25.062Z,3.60
2022-12-01T05:40:53.341Z,3.30
2022-12-01T05:43:28.676Z,3.60
2022-12-01T05:45:57.599Z,3.67
2022-12-01T05:48:25.694Z,3.50
2022-12-01T05:50:53.664Z,3.40
2022-12-01T05:53:21.651Z,3.50
2022-12-01T05:55:53.039Z,3.60
2022-12-01T05:58:22.458Z,3.35
2022-12-01T06:00:50.350Z,3.63
2022-12-01T06:03:18.244Z,3.58
2022-12-01T06:05:46.155Z,3.63
2022-12-01T06:08:14.018Z,3.53
2022-12-01T06:10:41.887Z,3.25
2022-12-01T06:13:09.767Z,3.53
2022-12-01T06:15:39.036Z,3.40
2022-12-01T06:18:07.020Z,3.40
2022-12-01T06:20:34.895Z,3.70
2022-12-01T06:23:02.733Z,3.45
2022-12-01T06:25:30.700Z,3.65
2022-12-01T06:27:58.639Z,3.50
2022-12-01T06:30:26.557Z,3.10
2022-12-01T06:32:55.789Z,3.63
2022-12-01T06:35:23.625Z,3.72
2022-12-01T06:37:51.615Z,5.30
2022-12-01T06:40:19.677Z,7.50
2022-12-01T06:42:47.499Z,8.07
2022-12-01T06:45:15.511Z,9.55
2022-12-01T06:47:43.375Z,8.00
2022-12-01T06:50:13.249Z,8.88
2022-12-01T06:52:41.096Z,7.75
2022-12-01T06:55:09.885Z,8.32
2022-12-01T06:57:38.054Z,8.10
2022-12-01T07:00:08.803Z,7.55
2022-12-01T07:02:37.143Z,7.75
2022-12-01T07:05:05.297Z,7.60
2022-12-01T07:07:36.757Z,7.03
2022-12-01T07:10:04.921Z,7.07
2022-12-01T07:12:32.797Z,7.25
2022-12-01T07:15:01.609Z,6.85
2022-12-01T07:17:29.744Z,6.60
2022-12-01T07:19:57.878Z,6.32
2022-12-01T07:22:31.016Z,6.57
2022-12-01T07:25:01.822Z,6.65
2022-12-01T07:27:31.280Z,7.03
2022-12-01T07:29:59.262Z,6.25
2022-12-01T07:32:27.162Z,5.95
2022-12-01T07:34:55.051Z,5.68
2022-12-01T07:37:22.979Z,5.93
2022-12-01T07:39:51.130Z,5.53
2022-12-01T07:42:20.555Z,6.22
2022-12-01T07:44:48.420Z,5.10
2022-12-01T07:47:16.297Z,5.65
2022-12-01T07:49:44.158Z,5.70
2022-12-01T07:52:12.027Z,5.55
2022-12-01T07:54:39.900Z,5.35
2022-12-01T07:57:08.065Z,5.22
2022-12-01T07:59:37.436Z,5.30
2022-12-01T08:02:05.349Z,5.13
2022-12-01T08:04:33.287Z,5.30
2022-12-01T08:07:01.326Z,5.25
2022-12-01T08:09:29.246Z,5.45
2022-12-01T08:11:57.178Z,5.07
2022-12-01T08:14:25.086Z,4.95
2022-12-01T08:16:54.335Z,5.40
2022-12-01T08:19:22.214Z,5.00
2022-12-01T08:21:50.076Z,5.03
2022-12-01T08:24:17.969Z,4.53
2022-12-01T08:26:45.893Z,4.85
2022-12-01T08:29:19.792Z,4.90
2022-12-01T08:31:49.287Z,4.68
2022-12-01T08:34:18.597Z,4.80
2022-12-01T08:36:46.459Z,4.80
2022-12-01T08:39:14.406Z,4.95
2022-12-01T08:41:42.357Z,4.28
2022-12-01T08:44:10.850Z,4.43
2022-12-01T08:46:38.947Z,4.70
2022-12-01T08:49:07.024Z,4.70
2022-12-01T08:51:36.934Z,4.35
2022-12-01T08:54:05.103Z,4.28
2022-12-01T08:56:34.021Z,4.38
2022-12-01T08:59:02.018Z,4.28
2022-12-01T09:01:30.135Z,4.68
2022-12-01T09:04:07.684Z,4.43
2022-12-01T09:06:40.048Z,4.50
2022-12-01T09:09:08.217Z,4.50
2022-12-01T09:11:36.262Z,4.65
2022-12-01T09:14:04.147Z,4.13
2022-12-01T09:16:32.221Z,4.03
2022-12-01T09:19:00.105Z,4.20
2022-12-01T09:21:30.368Z,4.20
2022-12-01T09:23:59.628Z,4.20
2022-12-01T09:26:27.632Z,4.20
2022-12-01T09:28:56.187Z,4.10
2022-12-01T09:31:24.412Z,4.00
2022-12-01T09:33:55.528Z,4.05
2022-12-01T09:36:23.397Z,4.25
2022-12-01T09:38:51.363Z,4.43
2022-12-01T09:41:22.010Z,4.25
2022-12-01T09:44:05.610Z,4.30
2022-12-01T09:46:35.480Z,3.90
2022-12-01T09:49:04.009Z,4.57
2022-12-01T09:51:34.802Z,4.00
2022-12-01T09:54:02.692Z,4.20
2022-12-01T09:56:33.150Z,3.63
2022-12-01T09:59:02.597Z,3.88
2022-12-01T10:01:34.495Z,4.00
2022-12-01T10:04:06.180Z,4.82
2022-12-01T10:06:37.321Z,5.38
2022-12-01T10:09:11.384Z,5.57
2022-12-01T10:11:42.655Z,6.30
2022-12-01T10:14:15.130Z,6.22
2022-12-01T10:16:50.014Z,6.85
2022-12-01T10:19:21.941Z,5.85
2022-12-01T10:22:00.929Z,6.25
2022-12-01T10:24:35.275Z,6.05
2022-12-01T10:27:09.363Z,6.60
2022-12-01T10:29:48.308Z,6.03
2022-12-01T10:32:18.763Z,6.50
2022-12-01T10:34:47.964Z,6.43
2022-12-01T10:37:18.056Z,6.93
2022-12-01T10:39:46.869Z,6.68
2022-12-01T10:42:18.253Z,7.35
2022-12-01T10:44:46.162Z,6.53
2022-12-01T10:47:18.959Z,6.68
2022-12-01T10:49:47.016Z,6.40
2022-12-01T10:52:33.194Z,6.13
2022-12-01T10:55:01.309Z,5.95
2022-12-01T10:57:31.165Z,6.00
2022-12-01T11:00:01.001Z,5.97
2022-12-01T11:02:29.792Z,5.85
2022-12-01T11:04:59.488Z,6.10
2022-12-01T11:07:29.612Z,5.78
2022-12-01T11:10:07.710Z,6.05
2022-12-01T11:12:36.933Z,6.05
2022-12-01T11:18:03.449Z,5.07
2022-12-01T11:20:34.005Z,5.70
2022-12-01T11:23:28.129Z,5.60
2022-12-01T11:26:04.906Z,5.47
2022-12-01T11:28:34.459Z,5.53
2022-12-01T11:31:05.328Z,5.38
2022-12-01T11:33:34.903Z,5.40
2022-12-01T11:36:02.809Z,6.10
2022-12-01T11:38:32.836Z,5.80
2022-12-01T11:41:00.776Z,5.30
2022-12-01T11:43:30.631Z,5.70
2022-12-01T11:46:00.834Z,5.22
2022-12-01T11:48:29.729Z,5.70
2022-12-01T11:51:03.349Z,5.93
2022-12-01T11:53:32.644Z,5.32
2022-12-01T11:56:20.809Z,5.40
2022-12-01T11:58:49.795Z,5.53
2022-12-01T12:01:24.599Z,5.70
2022-12-01T12:03:57.382Z,5.63
2022-12-01T12:06:42.462Z,5.00
2022-12-01T12:09:23.593Z,6.70
2022-12-01T12:12:02.126Z,8.65
2022-12-01T12:14:36.400Z,6.80
2022-12-01T12:17:17.545Z,7.28
2022-12-01T12:20:12.060Z,6.40
2022-12-01T12:22:50.864Z,6.25
2022-12-01T12:25:26.495Z,6.65
2022-12-01T12:28:00.282Z,6.20
2022-12-01T12:30:29.880Z,5.90
2022-12-01T12:33:20.451Z,5.78
2022-12-01T12:35:51.437Z,5.93
2022-12-01T12:38:29.645Z,5.70
2022-12-01T12:40:58.926Z,5.90
2022-12-01T12:43:29.241Z,5.68
2022-12-01T12:46:06.177Z,5.80
2022-12-01T12:49:11.718Z,5.70
2022-12-01T12:51:37.751Z,5.90
2022-12-01T12:54:06.599Z,5.30
2022-12-01T12:56:34.553Z,6.07
2022-12-01T12:59:03.994Z,5.65
2022-12-01T13:01:33.656Z,5.65
2022-12-01T13:04:05.003Z,5.63
2022-12-01T13:06:35.543Z,5.82
2022-12-01T13:09:05.619Z,5.68
2022-12-01T13:11:36.053Z,5.68
2022-12-01T13:14:06.497Z,5.65
2022-12-01T13:16:36.919Z,5.57
2022-12-01T13:19:08.460Z,5.75
2022-12-01T13:21:37.503Z,5.38
2022-12-01T13:24:06.210Z,5.60
2022-12-01T13:26:35.597Z,5.38
2022-12-01T13:29:32.175Z,5.72
2022-12-01T13:32:00.165Z,5.63
2022-12-01T13:34:32.497Z,5.80
2022-12-01T13:37:00.416Z,5.20
2022-12-01T13:39:28.987Z,5.55
2022-12-01T13:42:07.067Z,5.72
2022-12-01T13:44:39.946Z,5.15
2022-12-01T13:47:33.193Z,5.00
2022-12-01T13:50:33.587Z,6.15
2022-12-01T13:53:13.728Z,6.75
2022-12-01T13:55:56.590Z,7.53
2022-12-01T13:58:48.730Z,7.95
2022-12-01T14:01:44.617Z,8.10
2022-12-01T14:04:31.669Z,7.53
2022-12-01T14:07:29.178Z,7.43
2022-12-01T14:10:08.248Z,8.07
2022-12-01T14:12:37.780Z,7.68
2022-12-01T14:15:21.550Z,7.47
2022-12-01T14:17:49.482Z,7.30
2022-12-01T14:20:19.988Z,7.43
2022-12-01T14:22:50.269Z,7.90
2022-12-01T14:25:26.915Z,7.32
2022-12-01T14:27:56.257Z,7.22
2022-12-01T14:31:04.202Z,7.45
2022-12-01T14:33:47.763Z,6.93
2022-12-01T14:36:25.874Z,6.95
2022-12-01T14:38:56.234Z,7.75
2022-12-01T14:41:26.831Z,6.80
2022-12-01T14:44:05.354Z,7.22
2022-12-01T14:46:39.813Z,6.68
2022-12-01T14:49:10.806Z,6.95
2022-12-01T14:51:38.777Z,6.53
2022-12-01T14:54:11.013Z,6.78
2022-12-01T14:56:40.251Z,7.38
2022-12-01T14:59:16.113Z,6.35
2022-12-01T15:01:44.156Z,6.43
2022-12-01T15:04:12.173Z,6.30
2022-12-01T15:06:40.123Z,6.85
2022-12-01T15:09:32.812Z,6.65
2022-12-01T15:12:01.373Z,6.53
2022-12-01T15:14:34.027Z,6.13
2022-12-01T15:17:05.064Z,6.13
2022-12-01T15:19:35.058Z,6.20
2022-12-01T15:22:05.882Z,6.40
2022-12-01T15:24:34.099Z,6.20
2022-12-01T15:27:04.142Z,6.10
2022-12-01T15:29:32.924Z,6.03
2022-12-01T15:32:01.426Z,6.15
2022-12-01T15:34:31.697Z,5.70
2022-12-01T15:36:59.637Z,6.00
2022-12-01T15:39:31.931Z,5.78
2022-12-01T15:41:59.788Z,5.95
2022-12-01T15:44:31.030Z,5.63
2022-12-01T15:46:59.082Z,6.10
2022-12-01T15:49:29.636Z,5.50
2022-12-01T15:52:05.992Z,5.63
2022-12-01T15:54:33.962Z,5.90
2022-12-01T15:57:02.280Z,5.93
2022-12-01T15:59:34.991Z,5.60
2022-12-01T16:02:23.872Z,5.80
2022-12-01T16:05:00.841Z,6.10
2022-12-01T16:08:04.427Z,6.22
2022-12-01T16:10:30.564Z,5.57
2022-12-01T16:13:31.640Z,5.65
2022-12-01T16:16:00.973Z,5.60
2022-12-01T16:18:32.808Z,7.95
2022-12-01T16:21:03.596Z,7.45
2022-12-01T16:23:31.606Z,9.65
2022-12-01T16:26:02.035Z,8.55
2022-12-01T16:28:32.916Z,8.43
2022-12-01T16:31:04.064Z,8.07
2022-12-01T16:33:34.180Z,8.80
2022-12-01T16:36:03.256Z,8.95
2022-12-01T16:38:32.005Z,8.63
2022-12-01T16:41:00.880Z,8.80
2022-12-01T16:43:29.395Z,8.52
2022-12-01T16:46:00.349Z,8.10
2022-12-01T16:48:29.799Z,8.27
2022-12-01T16:50:57.687Z,8.27
2022-12-01T16:53:25.567Z,8.20
2022-12-01T16:55:54.409Z,7.60
2022-12-01T16:58:22.431Z,7.25
2022-12-01T17:00:52.633Z,7.53
2022-12-01T17:03:21.400Z,7.20
2022-12-01T17:05:50.701Z,6.75
2022-12-01T17:08:18.665Z,7.07
2022-12-01T17:10:47.766Z,7.25
2022-12-01T17:13:15.608Z,7.25
2022-12-01T17:15:43.720Z,7.18
2022-12-01T17:18:11.635Z,6.65
2022-12-01T17:20:39.541Z,6.90
2022-12-01T17:23:08.778Z,6.82
2022-12-01T17:25:36.699Z,6.75
2022-12-01T17:28:04.581Z,6.90
2022-12-01T17:30:32.467Z,7.10
2022-12-01T17:33:00.620Z,6.32
2022-12-01T17:35:28.511Z,6.57
2022-12-01T17:37:56.435Z,6.32
2022-12-01T17:40:25.654Z,6.38
2022-12-01T17:42:53.529Z,6.47
2022-12-01T17:45:21.407Z,6.35
2022-12-01T17:47:49.323Z,6.30
2022-12-01T17:50:17.461Z,5.75
2022-12-01T17:52:46.089Z,6.10
2022-12-01T17:55:14.048Z,5.93
2022-12-01T17:57:43.284Z,6.63
2022-12-01T18:00:12.438Z,5.88
2022-12-01T18:02:40.313Z,5.88
2022-12-01T18:05:09.105Z,6.32
2022-12-01T18:07:37.059Z,6.07
2022-12-01T18:10:05.274Z,6.07
2022-12-01T18:12:33.179Z,6.07
2022-12-01T18:15:02.507Z,5.63
2022-12-01T18:17:30.340Z,5.50
2022-12-01T18:19:58.242Z,5.85
2022-12-01T18:22:26.155Z,5.93
2022-12-01T18:24:54.019Z,5.85
2022-12-01T18:27:21.895Z,6.05
2022-12-01T18:29:49.764Z,5.85
2022-12-01T18:32:18.968Z,5.90
2022-12-01T18:34:46.826Z,5.57
2022-12-01T18:37:15.237Z,5.78
2022-12-01T18:39:43.167Z,5.97
2022-12-01T18:42:11.047Z,5.57
2022-12-01T18:44:39.045Z,6.38
2022-12-01T18:47:06.988Z,5.40
2022-12-01T18:49:36.244Z,5.68
2022-12-01T18:52:04.938Z,5.85
2022-12-01T18:54:32.814Z,5.95
2022-12-01T18:57:00.654Z,5.65
2022-12-01T18:59:28.838Z,6.00
2022-12-01T19:01:56.764Z,6.03
2022-12-01T19:04:24.698Z,5.57
2022-12-01T19:06:54.865Z,5.60
2022-12-01T19:09:22.842Z,5.70
2022-12-01T19:11:58.735Z,6.00
2022-12-01T19:14:27.849Z,6.10
2022-12-01T19:16:55.911Z,5.75
2022-12-01T19:19:23.850Z,6.13
2022-12-01T19:21:53.152Z,5.97
2022-12-01T19:24:21.099Z,6.28
2022-12-01T19:26:48.994Z,6.10
2022-12-01T19:29:17.031Z,6.30
2022-12-01T19:31:45.131Z,6.30
2022-12-01T19:34:13.085Z,6.38
2022-12-01T19:36:40.980Z,6.18
2022-12-01T19:39:11.214Z,6.68
2022-12-01T19:41:39.492Z,8.35
2022-12-01T19:44:07.396Z,8.88
2022-12-01T19:46:35.701Z,7.68
2022-12-01T19:49:03.718Z,6.95
2022-12-01T19:51:32.434Z,7.55
2022-12-01T19:54:00.328Z,7.95
2022-12-01T19:56:29.799Z,7.63
2022-12-01T19:58:58.658Z,8.65
2022-12-01T20:01:26.800Z,7.25
2022-12-01T20:03:55.118Z,8.30
2022-12-01T20:06:24.218Z,8.43
2022-12-01T20:08:52.478Z,8.52
2022-12-01T20:11:20.320Z,8.30
2022-12-01T20:13:49.681Z,8.63
2022-12-01T20:16:18.412Z,8.13
2022-12-01T20:18:46.447Z,8.00
2022-12-01T20:21:17.075Z,8.38
2022-12-01T20:23:45.230Z,8.80
2022-12-01T20:26:13.247Z,8.50
2022-12-01T20:28:41.440Z,8.82
2022-12-01T20:31:12.692Z,8.80
2022-12-01T20:33:40.692Z,8.65
2022-12-01T20:36:09.512Z,8.52
2022-12-01T20:38:37.645Z,8.43
2022-12-01T20:41:05.719Z,8.65
2022-12-01T20:43:33.741Z,8.68
2022-12-01T20:46:01.697Z,8.35
2022-12-01T20:48:30.996Z,8.55
2022-12-01T20:51:00.712Z,8.55
2022-12-01T20:53:28.658Z,8.45
2022-12-01T20:55:56.644Z,8.35
2022-12-01T20:58:24.518Z,8.10
2022-12-01T21:00:52.465Z,8.15
2022-12-01T21:03:20.355Z,8.05
2022-12-01T21:05:49.584Z,8.18
2022-12-01T21:08:17.449Z,7.93
2022-12-01T21:10:46.251Z,7.88
2022-12-01T21:13:35.265Z,8.93
2022-12-01T21:16:12.390Z,8.85
2022-12-01T21:18:45.688Z,8.73
2022-12-01T21:21:23.697Z,8.10
2022-12-01T21:23:59.608Z,8.52
2022-12-01T21:26:27.605Z,8.10
2022-12-01T21:28:55.549Z,8.18
2022-12-01T21:31:23.484Z,8.48
2022-12-01T21:33:51.418Z,8.23
2022-12-01T21:36:21.782Z,8.35
2022-12-01T21:38:50.296Z,8.02
2022-12-01T21:41:21.542Z,8.38
2022-12-01T21:43:49.390Z,8.20
2022-12-01T21:46:18.695Z,7.90
2022-12-01T21:48:47.047Z,8.07
2022-12-01T21:51:17.806Z,8.27
2022-12-01T21:53:47.053Z,8.07
2022-12-01T21:56:17.512Z,7.88
2022-12-01T21:58:45.431Z,7.95
2022-12-01T22:01:17.920Z,8.18
2022-12-01T22:03:46.253Z,7.68
2022-12-01T22:06:29.677Z,8.05
2022-12-01T22:09:01.645Z,8.07
2022-12-01T22:11:29.937Z,8.38
2022-12-01T22:14:02.117Z,7.75
2022-12-01T22:16:31.565Z,7.97
2022-12-01T22:19:00.431Z,8.13
2022-12-01T22:21:33.562Z,8.35
2022-12-01T22:24:20.062Z,8.70
2022-12-01T22:26:49.343Z,8.45
2022-12-01T22:29:30.212Z,8.45
2022-12-01T22:32:40.613Z,8.18
2022-12-01T22:35:32.821Z,7.75
2022-12-01T22:38:10.358Z,8.52
2022-12-01T22:40:44.601Z,8.25
2022-12-01T22:43:34.276Z,8.35
2022-12-01T22:46:11.339Z,8.38
2022-12-01T22:48:40.212Z,8.23
2022-12-01T22:51:23.769Z,7.88
2022-12-01T22:53:52.830Z,8.60
2022-12-01T22:56:27.622Z,8.50
2022-12-01T22:58:56.155Z,8.60
2022-12-01T23:01:27.017Z,7.95
2022-12-01T23:04:00.993Z,8.20
2022-12-01T23:06:58.093Z,8.45
2022-12-01T23:09:28.951Z,8.82
2022-12-01T23:12:00.937Z,8.63
2022-12-01T23:14:28.957Z,8.52
2022-12-01T23:17:01.747Z,8.07
2022-12-01T23:19:29.665Z,7.68
2022-12-01T23:21:57.526Z,8.75
2022-12-01T23:24:28.624Z,8.32
2022-12-01T23:27:00.232Z,7.78
2022-12-01T23:29:28.064Z,8.40
2022-12-01T23:31:56.340Z,7.90
2022-12-01T23:34:24.206Z,8.13
2022-12-01T23:36:52.121Z,8.45
2022-12-01T23:39:20.007Z,7.82
2022-12-01T23:41:49.546Z,8.10
2022-12-01T23:44:21.774Z,8.40
2022-12-01T23:46:50.725Z,8.23
2022-12-01T23:49:21.271Z,8.13
2022-12-01T23:51:50.673Z,8.45
2022-12-01T23:54:20.278Z,8.52
2022-12-01T23:56:49.767Z,8.18
2022-12-01T23:59:17.648Z,8.13
